Time;durP1;ratioP1;P1;durP2;ratioP2;P2;SDS_P1;SDS_P2;PMS_P1;PMS_P2;Temp;Humidity;BMP_temperature;BMP_pressure;BME280_temperature;BME280_humidity;BME280_pressure;Samples;Min_cycle;Max_cycle;Signal;HPM_P1;HPM_P2
2022/03/29 00:09:54;;;;;;;0.20;0.10;;;12.10;99.90;;;;;;25395287;23;20282;-61
2022/03/29 00:19:58;;;;;;;0.20;0.10;;;11.90;99.90;;;;;;25394498;23;20251;-62
2022/03/29 00:30:03;;;;;;;0.20;0.10;;;11.90;99.90;;;;;;25395332;23;20390;-61
2022/03/29 00:40:09;;;;;;;0.20;0.10;;;12.00;99.90;;;;;;25393080;23;20243;-61
2022/03/29 00:50:14;;;;;;;1.70;0.50;;;12.10;99.90;;;;;;25394805;23;20219;-63
2022/03/29 01:00:18;;;;;;;0.20;0.10;;;12.00;99.90;;;;;;25391326;23;20191;-63
2022/03/29 01:10:24;;;;;;;0.20;0.10;;;11.90;99.90;;;;;;25415540;23;20227;-63
2022/03/29 01:20:29;;;;;;;0.20;0.10;;;12.00;99.90;;;;;;25387660;23;20251;-62
2022/03/29 01:30:35;;;;;;;0.20;0.10;;;12.20;99.90;;;;;;25390033;23;20187;-63
2022/03/29 01:40:39;;;;;;;0.20;0.10;;;12.20;99.90;;;;;;25393056;23;20202;-64
2022/03/29 01:50:45;;;;;;;0.20;0.10;;;12.40;99.90;;;;;;25392180;23;20188;-63
2022/03/29 02:00:49;;;;;;;0.20;0.10;;;12.70;99.90;;;;;;25392136;23;20187;-64
2022/03/29 02:10:55;;;;;;;4.33;4.13;;;12.90;99.90;;;;;;25391487;23;20238;-62
2022/03/29 02:20:59;;;;;;;0.20;0.10;;;12.70;99.90;;;;;;25393442;23;20287;-63
2022/03/29 02:31:04;;;;;;;0.20;0.10;;;12.70;99.90;;;;;;25389933;23;20199;-61
2022/03/29 02:41:08;;;;;;;0.20;0.10;;;12.60;99.90;;;;;;25399064;23;20210;-62
2022/03/29 02:51:13;;;;;;;0.20;0.10;;;12.40;99.90;;;;;;25395164;23;20175;-61
2022/03/29 03:01:18;;;;;;;0.20;0.10;;;12.40;99.90;;;;;;25400763;23;20202;-62
2022/03/29 03:11:23;;;;;;;0.20;0.10;;;12.20;99.90;;;;;;25395737;23;20199;-62
2022/03/29 03:21:27;;;;;;;0.20;0.10;;;12.20;99.90;;;;;;25397695;23;20211;-62
2022/03/29 03:31:32;;;;;;;0.20;0.10;;;12.10;99.90;;;;;;25396304;23;20244;-62
2022/03/29 03:41:37;;;;;;;0.20;0.10;;;12.00;99.90;;;;;;25396604;23;20199;-62
2022/03/29 03:51:43;;;;;;;0.20;0.10;;;12.00;99.90;;;;;;25397371;23;20636;-64
2022/03/29 04:01:47;;;;;;;0.20;0.10;;;12.20;99.90;;;;;;25395176;23;20215;-63
2022/03/29 04:11:52;;;;;;;0.20;0.10;;;12.20;99.90;;;;;;25394630;23;20597;-63
2022/03/29 04:21:56;;;;;;;0.20;0.10;;;12.10;99.90;;;;;;25396551;23;20207;-63
2022/03/29 04:32:01;;;;;;;0.20;0.10;;;11.80;99.90;;;;;;25394374;23;20202;-63
2022/03/29 04:42:05;;;;;;;0.20;0.10;;;11.80;99.90;;;;;;25393632;23;20218;-62
2022/03/29 04:52:12;;;;;;;0.20;0.10;;;11.50;99.90;;;;;;25392470;23;20262;-63
2022/03/29 05:02:16;;;;;;;0.20;0.00;;;11.30;99.90;;;;;;25391676;23;20214;-63
2022/03/29 05:12:22;;;;;;;0.20;0.10;;;11.20;99.90;;;;;;25390519;23;20478;-63
2022/03/29 05:22:25;;;;;;;0.20;0.10;;;10.90;99.90;;;;;;25390542;23;20201;-63
2022/03/29 05:32:30;;;;;;;0.20;0.10;;;10.90;99.90;;;;;;25388087;23;20185;-62
2022/03/29 05:42:38;;;;;;;0.20;0.10;;;11.00;99.90;;;;;;25387165;23;20167;-62
2022/03/29 05:52:43;;;;;;;0.20;0.10;;;11.00;99.90;;;;;;25383348;23;20191;-64
2022/03/29 06:02:47;;;;;;;0.20;0.10;;;11.20;99.90;;;;;;25386441;23;20188;-64
2022/03/29 06:12:52;;;;;;;0.20;0.10;;;11.60;99.90;;;;;;25388199;23;20223;-63
2022/03/29 06:22:55;;;;;;;0.20;0.10;;;11.70;99.90;;;;;;25394321;23;20202;-64
2022/03/29 06:33:02;;;;;;;0.20;0.10;;;12.00;99.90;;;;;;25392027;23;20214;-70
2022/03/29 06:43:07;;;;;;;0.20;0.10;;;12.40;99.90;;;;;;25394473;23;20239;-66
2022/03/29 06:53:12;;;;;;;0.20;0.10;;;12.80;99.90;;;;;;25392262;23;20211;-74
2022/03/29 07:03:16;;;;;;;0.20;0.10;;;13.40;99.90;;;;;;25392709;23;20228;-74
2022/03/29 07:13:22;;;;;;;0.20;0.10;;;13.60;99.90;;;;;;25391877;23;20266;-78
2022/03/29 07:23:26;;;;;;;0.20;0.10;;;13.90;99.90;;;;;;25371167;23;20177;-72
2022/03/29 07:33:31;;;;;;;0.23;0.20;;;14.30;99.90;;;;;;25422985;23;20197;-75
2022/03/29 07:43:34;;;;;;;0.20;0.00;;;14.30;99.90;;;;;;25408567;23;20187;-78
2022/03/29 07:53:41;;;;;;;1.00;1.00;;;14.80;99.90;;;;;;25392584;23;20214;-76
2022/03/29 08:03:44;;;;;;;0.20;0.10;;;15.10;99.90;;;;;;25390129;23;20400;-70
2022/03/29 08:13:50;;;;;;;0.20;0.10;;;15.50;99.90;;;;;;25390276;23;20282;-68
2022/03/29 08:23:54;;;;;;;0.20;0.10;;;16.20;99.90;;;;;;25386144;23;20176;-63
2022/03/29 08:33:59;;;;;;;0.20;0.10;;;16.80;99.90;;;;;;25388645;23;20202;-63
2022/03/29 08:44:03;;;;;;;0.20;0.10;;;16.20;99.90;;;;;;25411952;23;20168;-63
2022/03/29 08:54:08;;;;;;;0.20;0.10;;;16.10;99.90;;;;;;25386735;23;20215;-63
2022/03/29 09:04:13;;;;;;;0.20;0.10;;;16.10;99.90;;;;;;25383771;23;20211;-63
2022/03/29 09:14:19;;;;;;;0.20;0.10;;;16.10;99.90;;;;;;25387305;23;20711;-62
2022/03/29 09:24:23;;;;;;;0.20;0.20;;;16.30;99.90;;;;;;25409036;23;20206;-63
2022/03/29 09:34:28;;;;;;;0.20;0.10;;;16.40;99.90;;;;;;25386239;23;20230;-63
2022/03/29 09:44:38;;;;;;;0.20;0.10;;;16.60;99.90;;;;;;25410749;23;20195;-63
2022/03/29 09:54:43;;;;;;;0.20;0.10;;;16.70;99.90;;;;;;25380899;23;20255;-64
2022/03/29 10:04:47;;;;;;;0.20;0.10;;;16.50;99.90;;;;;;25384469;23;20207;-64
2022/03/29 10:14:56;;;;;;;0.30;0.20;;;16.60;99.90;;;;;;25380945;23;20271;-63
2022/03/29 10:25:00;;;;;;;0.43;0.43;;;16.70;99.90;;;;;;25386470;23;20172;-64
2022/03/29 10:35:10;;;;;;;0.40;0.40;;;17.50;99.90;;;;;;25386490;23;20211;-63
2022/03/29 10:45:19;;;;;;;0.20;0.10;;;17.60;99.90;;;;;;25383445;23;20227;-63
2022/03/29 10:55:30;;;;;;;0.20;0.20;;;17.00;99.90;;;;;;25386754;23;20218;-64
2022/03/29 15:48:14;;;;;;;0.20;0.10;;;16.90;99.90;;;;;;25486811;23;20238;-78
2022/03/29 15:58:22;;;;;;;0.20;0.10;;;16.00;99.90;;;;;;25532940;23;20217;-78
2022/03/29 16:08:46;;;;;;;0.20;0.10;;;16.00;99.90;;;;;;25499183;23;20191;-78
2022/03/29 16:18:51;;;;;;;0.20;0.10;;;16.00;99.90;;;;;;25526402;23;20201;-77
2022/03/29 16:28:55;;;;;;;0.20;0.10;;;15.90;99.90;;;;;;25526781;23;20253;-70
2022/03/29 16:39:02;;;;;;;0.20;0.10;;;15.70;99.90;;;;;;25528414;23;20241;-75
2022/03/29 16:49:06;;;;;;;0.20;0.10;;;15.60;99.90;;;;;;25513743;23;20199;-78
2022/03/29 16:59:11;;;;;;;0.20;0.00;;;16.00;99.90;;;;;;25381240;23;20191;-79
2022/03/29 17:09:15;;;;;;;0.20;0.10;;;16.20;99.90;;;;;;25379907;23;20172;-77
2022/03/29 17:19:21;;;;;;;0.20;0.00;;;16.20;99.90;;;;;;25404032;23;20191;-78
2022/03/29 17:29:25;;;;;;;1.13;1.13;;;16.20;99.90;;;;;;25406837;23;20151;-78
2022/03/29 17:39:32;;;;;;;0.20;0.10;;;16.10;99.90;;;;;;25404052;23;20187;-79
2022/03/29 17:49:36;;;;;;;0.20;0.10;;;15.70;99.90;;;;;;25409699;23;20280;-63
2022/03/29 17:59:42;;;;;;;0.20;0.10;;;15.40;99.90;;;;;;25378278;23;20180;-64
2022/03/29 18:09:46;;;;;;;0.20;0.10;;;15.20;99.90;;;;;;25401350;23;20155;-63
2022/03/29 18:19:51;;;;;;;0.20;0.10;;;15.10;99.90;;;;;;25400092;23;20195;-64
2022/03/29 18:29:55;;;;;;;0.20;0.10;;;15.10;99.90;;;;;;25403107;23;20182;-62
2022/03/29 18:40:01;;;;;;;0.20;0.10;;;15.00;99.90;;;;;;25403333;23;20198;-63
2022/03/29 18:50:07;;;;;;;0.77;0.77;;;15.20;99.90;;;;;;25380784;23;20195;-64
2022/03/29 19:00:14;;;;;;;0.20;0.10;;;15.10;99.90;;;;;;25403234;23;20191;-64
2022/03/29 19:10:18;;;;;;;0.20;0.10;;;15.10;99.90;;;;;;25405183;23;20220;-65
2022/03/29 19:20:23;;;;;;;0.20;0.10;;;15.10;99.90;;;;;;25409497;23;20207;-64
2022/03/29 19:30:29;;;;;;;0.20;0.10;;;15.20;99.90;;;;;;25386919;23;20164;-64
2022/03/29 19:40:34;;;;;;;0.20;0.10;;;14.90;99.90;;;;;;25411930;23;20199;-65
2022/03/29 19:50:38;;;;;;;0.20;0.10;;;14.90;99.90;;;;;;25384658;23;20203;-65
2022/03/29 20:01:04;;;;;;;0.20;0.10;;;14.90;99.90;;;;;;25410162;23;20179;-63
2022/03/29 20:11:08;;;;;;;0.20;0.10;;;15.00;99.90;;;;;;25411199;23;20231;-63
2022/03/29 20:21:14;;;;;;;0.20;0.00;;;15.00;99.90;;;;;;25412607;23;20191;-64
2022/03/29 20:31:18;;;;;;;0.20;0.10;;;14.90;99.90;;;;;;25411205;23;20168;-64
2022/03/29 20:41:23;;;;;;;0.20;0.10;;;14.90;99.90;;;;;;25411784;23;20183;-63
2022/03/29 20:51:30;;;;;;;0.87;0.43;;;14.90;99.90;;;;;;25408534;23;20206;-62
2022/03/29 21:01:35;;;;;;;0.20;0.00;;;14.80;99.90;;;;;;25410915;23;20183;-63
2022/03/29 21:11:39;;;;;;;0.20;0.10;;;14.90;99.90;;;;;;25408367;23;20195;-64
2022/03/29 21:21:45;;;;;;;0.20;0.10;;;14.80;99.90;;;;;;25387393;23;20206;-66
2022/03/29 21:31:49;;;;;;;3.33;1.50;;;14.80;99.90;;;;;;25409184;23;20170;-62
2022/03/29 21:41:54;;;;;;;0.20;0.10;;;14.70;99.90;;;;;;25409992;23;20199;-63
2022/03/29 21:51:58;;;;;;;0.20;0.10;;;14.80;99.90;;;;;;25404638;23;20206;-63
2022/03/29 22:02:03;;;;;;;0.20;0.10;;;14.80;99.90;;;;;;25379171;23;20226;-64
2022/03/29 22:12:08;;;;;;;0.20;0.10;;;14.80;99.90;;;;;;25399472;23;20615;-64
2022/03/29 22:22:13;;;;;;;0.20;0.10;;;14.70;99.90;;;;;;25404486;23;20210;-64
2022/03/29 22:32:17;;;;;;;0.20;0.03;;;14.60;99.90;;;;;;25378202;23;20445;-64
2022/03/29 22:42:23;;;;;;;1.53;1.43;;;14.60;99.90;;;;;;25404365;23;20214;-64
2022/03/29 22:52:27;;;;;;;0.20;0.17;;;14.60;99.90;;;;;;25381936;23;20501;-63
2022/03/29 23:02:32;;;;;;;0.20;0.10;;;14.50;99.90;;;;;;25385794;23;20190;-63
2022/03/29 23:12:36;;;;;;;0.20;0.03;;;14.30;99.90;;;;;;25412557;23;20284;-64
2022/03/29 23:22:42;;;;;;;0.20;0.10;;;14.30;99.90;;;;;;25409826;23;20629;-63
2022/03/29 23:32:46;;;;;;;0.20;0.10;;;14.30;99.90;;;;;;25411984;23;20160;-64
2022/03/29 23:42:51;;;;;;;0.20;0.10;;;14.40;99.90;;;;;;25409583;23;20187;-63
2022/03/29 23:52:54;;;;;;;0.20;0.10;;;14.50;99.90;;;;;;25411683;23;20279;-64
